createdAt,value
2024-02-17T00:02:43.757Z,100025.66
2024-02-17T00:07:47.614Z,100031.05
2024-02-17T00:12:52.503Z,100028.83
2024-02-17T00:17:57.169Z,100033.12
2024-02-17T00:23:01.434Z,100031.19
2024-02-17T00:28:05.497Z,100029.65
2024-02-17T00:33:10.564Z,100026.00
2024-02-17T00:38:15.109Z,100029.73
2024-02-17T00:43:19.642Z,100036.81
2024-02-17T00:48:25.280Z,100038.66
2024-02-17T00:53:30.658Z,100038.00
2024-02-17T00:58:36.117Z,100034.05
2024-02-17T01:03:40.395Z,100036.10
2024-02-17T01:08:45.299Z,100040.81
2024-02-17T01:13:50.475Z,100036.98
2024-02-17T01:18:56.758Z,100037.90
2024-02-17T01:24:03.061Z,100041.88
2024-02-17T01:29:07.684Z,100046.21
2024-02-17T01:34:12.077Z,100047.94
2024-02-17T01:39:16.774Z,100051.54
2024-02-17T01:44:21.074Z,100050.25
2024-02-17T01:49:26.944Z,100045.78
2024-02-17T01:54:31.869Z,100043.73
2024-02-17T01:59:36.180Z,100044.55
2024-02-17T02:04:40.884Z,100047.56
2024-02-17T02:09:46.207Z,100042.61
2024-02-17T02:15:05.977Z,100045.33
2024-02-17T02:20:15.390Z,100044.30
2024-02-17T02:25:27.037Z,100041.95
2024-02-17T02:30:31.433Z,100036.70
2024-02-17T02:35:35.957Z,100037.80
2024-02-17T02:40:40.504Z,100039.86
2024-02-17T02:45:45.088Z,100039.27
2024-02-17T02:50:49.267Z,100040.98
2024-02-17T02:55:58.687Z,100047.12
2024-02-17T03:01:03.164Z,100042.61
2024-02-17T03:06:08.166Z,100050.85
2024-02-17T03:11:16.397Z,100048.48
2024-02-17T03:16:27.818Z,100051.45
2024-02-17T03:21:37.726Z,100052.95
2024-02-17T03:26:42.375Z,100053.08
2024-02-17T03:31:47.170Z,100061.66
2024-02-17T03:36:51.457Z,100075.27
2024-02-17T03:47:17.434Z,100087.89
2024-02-17T03:52:21.881Z,100089.73
2024-02-17T03:57:25.950Z,100093.90
2024-02-17T04:02:30.544Z,100099.40
2024-02-17T04:07:35.052Z,100105.75
2024-02-17T04:12:42.805Z,100107.87
2024-02-17T04:17:47.233Z,100109.54
2024-02-17T04:22:51.193Z,100118.20
2024-02-17T04:27:55.901Z,100117.67
2024-02-17T04:33:00.480Z,100123.21
2024-02-17T04:38:05.146Z,100126.04
2024-02-17T04:43:09.857Z,100127.39
2024-02-17T04:48:14.213Z,100126.23
2024-02-17T04:53:18.961Z,100125.68
2024-02-17T04:58:23.527Z,100127.98
2024-02-17T05:03:28.909Z,100127.92
2024-02-17T05:08:33.457Z,100134.84
2024-02-17T05:13:38.419Z,100137.34
2024-02-17T05:18:42.602Z,100137.66
2024-02-17T05:23:47.521Z,100140.42
2024-02-17T05:28:51.727Z,100143.52
2024-02-17T05:33:56.064Z,100150.34
2024-02-17T05:39:00.384Z,100153.64
2024-02-17T05:44:04.819Z,100154.02
2024-02-17T05:49:09.851Z,100158.83
2024-02-17T05:54:16.368Z,100159.55
2024-02-17T05:59:22.498Z,100164.05
2024-02-17T06:04:27.035Z,100178.41
2024-02-17T06:09:32.647Z,100177.31
2024-02-17T06:14:37.545Z,100174.92
2024-02-17T06:20:00.557Z,100176.23
2024-02-17T06:25:06.692Z,100180.41
2024-02-17T06:30:16.076Z,100187.15
2024-02-17T06:35:19.792Z,100193.16
2024-02-17T06:40:24.103Z,100197.27
2024-02-17T06:45:28.831Z,100199.50
2024-02-17T06:50:33.206Z,100203.09
2024-02-17T06:55:37.808Z,100211.42
2024-02-17T07:00:42.761Z,100231.55
2024-02-17T07:05:46.849Z,100245.33
2024-02-17T07:10:50.940Z,100249.79
2024-02-17T07:15:56.041Z,100251.20
2024-02-17T07:21:00.893Z,100255.73
2024-02-17T07:26:04.862Z,100257.30
2024-02-17T07:31:09.004Z,100262.58
2024-02-17T07:36:13.022Z,100270.34
2024-02-17T07:41:18.668Z,100274.15
2024-02-17T07:46:23.349Z,100279.01
2024-02-17T07:51:27.012Z,100283.14
2024-02-17T07:56:31.965Z,100284.27
2024-02-17T08:01:36.039Z,100292.94
2024-02-17T08:06:39.984Z,100294.71
2024-02-17T08:11:49.706Z,100301.41
2024-02-17T08:16:54.120Z,100301.79
2024-02-17T08:21:58.574Z,100306.73
2024-02-17T08:27:02.766Z,100310.66
2024-02-17T08:32:07.523Z,100319.98
2024-02-17T08:37:14.142Z,100318.39
2024-02-17T08:42:18.560Z,100322.81
2024-02-17T08:47:24.035Z,100329.77
2024-02-17T08:52:28.191Z,100332.42
2024-02-17T08:57:32.579Z,100346.75
2024-02-17T09:02:38.082Z,100351.91
2024-02-17T09:07:42.615Z,100356.20
2024-02-17T09:12:46.339Z,100355.96
2024-02-17T09:17:50.534Z,100361.25
2024-02-17T09:22:54.841Z,100350.95
2024-02-17T09:27:58.807Z,100362.89
2024-02-17T09:33:03.404Z,100383.27
2024-02-17T09:38:08.046Z,100388.20
2024-02-17T09:43:12.702Z,100391.34
2024-02-17T09:48:17.532Z,100402.34
2024-02-17T09:53:23.877Z,100406.65
2024-02-17T09:58:28.707Z,100409.84
2024-02-17T10:03:34.453Z,100412.09
2024-02-17T10:08:39.297Z,100416.17
2024-02-17T10:13:44.523Z,100423.73
2024-02-17T10:18:49.958Z,100425.90
2024-02-17T10:23:54.350Z,100427.13
2024-02-17T10:28:59.821Z,100430.66
2024-02-17T10:34:04.380Z,100429.19
2024-02-17T10:39:08.912Z,100429.98
2024-02-17T10:44:13.712Z,100429.85
2024-02-17T10:49:34.202Z,100429.86
2024-02-17T10:54:38.711Z,100428.50
2024-02-17T10:59:45.496Z,100434.91
2024-02-17T11:04:50.684Z,100441.80
2024-02-17T11:10:07.537Z,100445.72
2024-02-17T11:15:13.156Z,100452.91
2024-02-17T11:20:18.250Z,100459.58
2024-02-17T11:25:42.914Z,100461.28
2024-02-17T11:30:56.180Z,100461.64
2024-02-17T11:36:05.034Z,100461.85
2024-02-17T11:41:08.917Z,100472.23
2024-02-17T11:46:17.108Z,100479.61
2024-02-17T11:51:27.262Z,100481.63
2024-02-17T11:56:34.744Z,100489.77
2024-02-17T12:01:39.170Z,100488.30
2024-02-17T12:06:43.344Z,100491.34
2024-02-17T12:11:47.451Z,100494.20
2024-02-17T12:16:51.394Z,100495.00
2024-02-17T12:21:59.951Z,100502.92
2024-02-17T12:27:05.515Z,100504.11
2024-02-17T12:32:22.676Z,100506.41
2024-02-17T12:37:26.937Z,100508.83
2024-02-17T12:42:31.289Z,100509.00
2024-02-17T12:47:35.907Z,100515.29
2024-02-17T12:52:40.910Z,100521.70
2024-02-17T12:57:45.819Z,100521.10
2024-02-17T13:02:50.115Z,100525.19
2024-02-17T13:07:54.884Z,100530.63
2024-02-17T13:12:59.491Z,100530.13
2024-02-17T13:18:04.717Z,100535.98
2024-02-17T13:23:10.289Z,100548.89
2024-02-17T13:28:14.576Z,100550.55
2024-02-17T13:33:18.925Z,100560.27
2024-02-17T13:38:29.956Z,100557.48
2024-02-17T13:43:35.110Z,100555.46
2024-02-17T13:48:38.805Z,100552.10
2024-02-17T13:53:44.060Z,100565.42
2024-02-17T13:58:48.356Z,100572.42
2024-02-17T14:03:52.395Z,100578.63
2024-02-17T14:08:56.676Z,100581.52
2024-02-17T14:14:02.882Z,100589.52
2024-02-17T14:19:08.063Z,100586.54
2024-02-17T14:24:12.157Z,100597.69
2024-02-17T14:29:15.715Z,100616.38
2024-02-17T14:34:19.460Z,100639.77
2024-02-17T14:39:23.649Z,100657.08
2024-02-17T14:44:28.186Z,100670.80
2024-02-17T14:49:31.913Z,100677.02
2024-02-17T14:54:37.178Z,100693.35
2024-02-17T14:59:41.845Z,100706.63
2024-02-17T15:04:46.034Z,100715.67
2024-02-17T15:09:51.043Z,100728.45
2024-02-17T15:14:58.102Z,100733.90
2024-02-17T15:20:03.082Z,100739.84
2024-02-17T15:25:08.108Z,100749.57
2024-02-17T15:30:13.816Z,100756.39
2024-02-17T15:35:30.764Z,100759.61
2024-02-17T15:40:36.100Z,100770.88
2024-02-17T15:45:41.560Z,100781.44
2024-02-17T15:50:45.576Z,100784.71
2024-02-17T15:55:51.079Z,100798.20
2024-02-17T16:00:56.538Z,100808.05
2024-02-17T16:06:07.182Z,100816.39
2024-02-17T16:11:13.803Z,100827.24
2024-02-17T16:16:18.938Z,100836.85
2024-02-17T16:21:24.263Z,100855.86
2024-02-17T16:26:33.274Z,100870.51
2024-02-17T16:31:37.798Z,100886.99
2024-02-17T16:36:42.459Z,100897.67
2024-02-17T16:41:52.357Z,100911.45
2024-02-17T16:46:56.306Z,100919.17
2024-02-17T16:52:00.339Z,100935.59
2024-02-17T16:57:07.679Z,100947.44
2024-02-17T17:02:13.752Z,100955.13
2024-02-17T17:07:18.742Z,100971.43
2024-02-17T17:12:23.037Z,100981.90
2024-02-17T17:17:26.861Z,100987.77
2024-02-17T17:22:40.003Z,100993.55
2024-02-17T17:27:50.632Z,101001.41
2024-02-17T17:32:54.577Z,101014.16
2024-02-17T17:37:59.337Z,101020.00
2024-02-17T17:43:07.133Z,101026.11
2024-02-17T17:48:12.797Z,101034.04
2024-02-17T17:53:17.117Z,101044.73
2024-02-17T17:58:21.961Z,101049.77
2024-02-17T18:03:27.970Z,101056.67
2024-02-17T18:08:31.965Z,101061.20
2024-02-17T18:13:35.968Z,101061.98
2024-02-17T18:18:40.142Z,101070.83
2024-02-17T18:23:44.369Z,101079.65
2024-02-17T18:28:48.505Z,101086.44
2024-02-17T18:33:52.284Z,101090.52
2024-02-17T18:38:56.697Z,101090.42
2024-02-17T18:44:00.895Z,101093.39
2024-02-17T18:49:05.535Z,101097.58
2024-02-17T18:54:09.072Z,101107.20
2024-02-17T18:59:13.077Z,101111.77
2024-02-17T19:04:16.893Z,101116.96
2024-02-17T19:09:22.498Z,101126.67
2024-02-17T19:14:28.781Z,101137.42
2024-02-17T19:19:32.407Z,101139.47
2024-02-17T19:24:36.321Z,101144.88
2024-02-17T19:29:41.284Z,101156.57
2024-02-17T19:34:45.443Z,101155.23
2024-02-17T19:39:49.693Z,101166.26
2024-02-17T19:44:53.587Z,101167.66
2024-02-17T19:49:58.528Z,101171.84
2024-02-17T19:55:02.869Z,101183.87
2024-02-17T20:00:08.218Z,101189.95
2024-02-17T20:05:12.508Z,101193.70
2024-02-17T20:10:17.355Z,101206.79
2024-02-17T20:15:21.960Z,101214.34
2024-02-17T20:20:26.294Z,101229.16
2024-02-17T20:25:32.431Z,101235.58
2024-02-17T20:30:36.877Z,101240.26
2024-02-17T20:35:40.963Z,101249.16
2024-02-17T20:40:45.619Z,101252.33
2024-02-17T20:45:50.848Z,101260.20
2024-02-17T20:50:56.028Z,101261.55
2024-02-17T20:55:59.604Z,101269.65
2024-02-17T21:01:05.121Z,101274.48
2024-02-17T21:06:09.963Z,101281.14
2024-02-17T21:11:17.667Z,101282.96
2024-02-17T21:16:21.916Z,101288.52
2024-02-17T21:21:29.052Z,101297.83
2024-02-17T21:26:35.822Z,101295.86
2024-02-17T21:31:42.785Z,101302.05
2024-02-17T21:36:48.693Z,101306.07
2024-02-17T21:41:52.830Z,101314.25
2024-02-17T21:46:57.800Z,101315.00
2024-02-17T21:52:02.831Z,101320.06
2024-02-17T21:57:09.441Z,101329.58
2024-02-17T22:02:13.441Z,101334.67
2024-02-17T22:07:17.326Z,101347.23
2024-02-17T22:12:21.340Z,101353.34
2024-02-17T22:17:26.354Z,101360.70
2024-02-17T22:22:30.912Z,101365.11
2024-02-17T22:27:34.872Z,101375.29
2024-02-17T22:32:38.791Z,101381.13
2024-02-17T22:37:43.416Z,101378.30
2024-02-17T22:42:47.657Z,101389.51
2024-02-17T22:47:54.393Z,101388.88
2024-02-17T22:52:58.972Z,101396.61
2024-02-17T22:58:03.261Z,101400.48
2024-02-17T23:03:08.417Z,101406.25
2024-02-17T23:08:12.892Z,101405.83
2024-02-17T23:13:20.222Z,101416.32
2024-02-17T23:18:24.034Z,101426.84
2024-02-17T23:23:28.625Z,101427.98
2024-02-17T23:28:38.693Z,101431.94
2024-02-17T23:33:42.831Z,101434.86
2024-02-17T23:38:46.911Z,101437.38
2024-02-17T23:43:51.415Z,101439.86
2024-02-17T23:48:56.649Z,101441.59
2024-02-17T23:54:01.273Z,101451.41
2024-02-17T23:59:05.215Z,101460.98
